This is the latest recevied weather packets stored in our database for station/object W2IRT. If no packets are shown the sender has not sent any weather packets the latest 1 day(s).
| Time | Temp. | Humidity | Pressure | Rain* | Wind** | Luminosity | Snow |
|---|---|---|---|---|---|---|---|
| 1777990217 | 21.67° C | 53% | 1010.5 hPa | 0 mm | 0.89 m/s, 225° | - | - |
| 1777989917 | 21.67° C | 53% | 1010.5 hPa | 0 mm | 1.34 m/s, 225° | - | - |
| 1777989617 | 21.11° C | 56% | 1010.3 hPa | 0 mm | 0.89 m/s, 202° | - | - |
| 1777989316 | 21.11° C | 56% | 1010.3 hPa | 0 mm | 0.45 m/s, 225° | - | - |
| 1777989017 | 21.11° C | 56% | 1010.3 hPa | 0 mm | 0.45 m/s, 225° | - | - |
| 1777988716 | 20.56° C | 57% | 1010.4 hPa | 0 mm | 0.45 m/s, 225° | - | - |
| 1777988417 | 20.56° C | 57% | 1010.4 hPa | 0 mm | 1.34 m/s, 225° | - | - |
| 1777987817 | 20° C | 59% | 1010.3 hPa | 0 mm | 0.45 m/s, 225° | - | - |
| 1777987517 | 20° C | 59% | 1010.4 hPa | 0 mm | 0.45 m/s, 225° | - | - |
| 1777987216 | 20° C | 59% | 1010.4 hPa | 0 mm | 0.89 m/s, 225° | - | - |
| 1777986916 | 19.44° C | 59% | 1010.4 hPa | 0 mm | 1.79 m/s, 202° | - | - |
| 1777986632 | 19.44° C | 59% | 1010.4 hPa | 0 mm | 2.24 m/s, 225° | - | - |
| 1777986316 | 19.44° C | 60% | 1010.4 hPa | 0 mm | 1.79 m/s, 225° | - | - |
| 1777986016 | 18.89° C | 62% | 1010.4 hPa | 0 mm | 1.34 m/s, 225° | - | - |
| 1777985716 | 18.89° C | 62% | 1010.2 hPa | 0 mm | 1.79 m/s, 225° | - | - |
| 1777985416 | 18.33° C | 63% | 1010.1 hPa | 0 mm | 1.34 m/s, 225° | - | - |
| 1777985116 | 18.33° C | 64% | 1010 hPa | 0 mm | 0.45 m/s, 225° | - | - |
| 1777984817 | 18.33° C | 66% | 1009.9 hPa | 0 mm | 0.45 m/s, 225° | - | - |
| 1777984517 | 17.78° C | 66% | 1010 hPa | 0 mm | 0.45 m/s, 225° | - | - |
| 1777982717 | 16.67° C | 70% | 1010.4 hPa | 0 mm | 0.45 m/s, 225° | - | - |
| 1777982416 | 16.67° C | 70% | 1010.4 hPa | 0 mm | 0.45 m/s, 225° | - | - |
| 1777974916 | 15° C | 68% | 1009.9 hPa | 0 mm | 0.45 m/s, 202° | - | - |
| 1777956015 | 17.22° C | 53% | 1009.8 hPa | 0 mm | 0.45 m/s, 225° | - | - |
| 1777955715 | 17.22° C | 52% | 1009.9 hPa | 0 mm | 0.45 m/s, 202° | - | - |
| 1777955415 | 17.22° C | 52% | 1009.9 hPa | 0 mm | 0.45 m/s, 225° | - | - |
* Rain latest hour (hover to see other rain measurements)
** Current wind speed in m/s (hover to see current wind gust speed)